sensor_id;sensor_type;location;lat;lon;timestamp;pressure;altitude;pressure_sealevel;temperature;humidity
64835;BME280;51293;59.296;18.006;2022-08-19T00:01:47;101024.69;;;19.25;89.27
64835;BME280;51293;59.296;18.006;2022-08-19T00:04:15;101028.78;;;19.28;89.58
64835;BME280;51293;59.296;18.006;2022-08-19T00:06:43;101018.09;;;19.26;89.44
64835;BME280;51293;59.296;18.006;2022-08-19T00:09:11;101025.25;;;19.22;90.17
64835;BME280;51293;59.296;18.006;2022-08-19T00:11:38;101019.50;;;19.19;90.54
64835;BME280;51293;59.296;18.006;2022-08-19T00:14:06;101029.94;;;19.22;90.55
64835;BME280;51293;59.296;18.006;2022-08-19T00:16:34;101017.84;;;19.18;91.33
64835;BME280;51293;59.296;18.006;2022-08-19T00:18:59;101027.72;;;19.19;91.20
64835;BME280;51293;59.296;18.006;2022-08-19T00:21:25;101024.97;;;19.19;91.42
64835;BME280;51293;59.296;18.006;2022-08-19T00:23:52;101028.25;;;19.26;91.63
64835;BME280;51293;59.296;18.006;2022-08-19T00:26:18;101020.84;;;19.26;91.62
64835;BME280;51293;59.296;18.006;2022-08-19T00:28:43;101032.63;;;19.27;91.84
64835;BME280;51293;59.296;18.006;2022-08-19T00:31:09;101026.34;;;19.26;92.13
64835;BME280;51293;59.296;18.006;2022-08-19T00:33:35;101032.09;;;19.30;92.24
64835;BME280;51293;59.296;18.006;2022-08-19T00:36:02;101023.88;;;19.25;92.85
64835;BME280;51293;59.296;18.006;2022-08-19T00:38:30;101022.22;;;19.29;92.87
64835;BME280;51293;59.296;18.006;2022-08-19T00:40:55;101020.59;;;19.23;93.35
64835;BME280;51293;59.296;18.006;2022-08-19T00:43:24;101007.16;;;19.21;93.80
64835;BME280;51293;59.296;18.006;2022-08-19T00:45:50;101005.50;;;19.20;93.84
64835;BME280;51293;59.296;18.006;2022-08-19T00:48:17;101004.69;;;19.20;93.91
64835;BME280;51293;59.296;18.006;2022-08-19T00:50:44;101003.03;;;19.19;94.23
64835;BME280;51293;59.296;18.006;2022-08-19T00:53:12;100996.16;;;19.21;94.45
64835;BME280;51293;59.296;18.006;2022-08-19T00:55:42;100994.25;;;19.22;94.45
64835;BME280;51293;59.296;18.006;2022-08-19T00:58:13;101002.72;;;19.25;94.31
64835;BME280;51293;59.296;18.006;2022-08-19T01:00:40;100999.44;;;19.23;94.62
64835;BME280;51293;59.296;18.006;2022-08-19T01:03:09;101003.25;;;19.27;94.33
64835;BME280;51293;59.296;18.006;2022-08-19T01:05:36;101009.84;;;19.31;94.17
64835;BME280;51293;59.296;18.006;2022-08-19T01:08:03;100995.84;;;19.28;94.59
64835;BME280;51293;59.296;18.006;2022-08-19T01:10:33;101006.56;;;19.29;94.56
64835;BME280;51293;59.296;18.006;2022-08-19T01:13:02;101010.94;;;19.30;94.69
64835;BME280;51293;59.296;18.006;2022-08-19T01:15:33;101007.38;;;19.30;94.79
64835;BME280;51293;59.296;18.006;2022-08-19T01:18:07;101005.75;;;19.29;94.93
64835;BME280;51293;59.296;18.006;2022-08-19T01:20:33;101002.44;;;19.27;95.59
64835;BME280;51293;59.296;18.006;2022-08-19T01:23:00;101001.31;;;19.28;95.56
64835;BME280;51293;59.296;18.006;2022-08-19T01:25:40;101004.06;;;19.28;95.55
64835;BME280;51293;59.296;18.006;2022-08-19T01:28:07;100992.56;;;19.26;96.13
64835;BME280;51293;59.296;18.006;2022-08-19T01:30:35;100993.06;;;19.33;95.59
64835;BME280;51293;59.296;18.006;2022-08-19T01:33:01;100994.47;;;19.30;95.45
64835;BME280;51293;59.296;18.006;2022-08-19T01:35:29;100999.69;;;19.32;95.78
64835;BME280;51293;59.296;18.006;2022-08-19T01:38:00;100989.25;;;19.29;95.95
64835;BME280;51293;59.296;18.006;2022-08-19T01:40:30;100985.94;;;19.32;95.81
64835;BME280;51293;59.296;18.006;2022-08-19T01:42:57;100992.50;;;19.36;95.42
64835;BME280;51293;59.296;18.006;2022-08-19T01:45:24;100994.44;;;19.35;95.57
64835;BME280;51293;59.296;18.006;2022-08-19T01:47:50;100995.53;;;19.34;95.79
64835;BME280;51293;59.296;18.006;2022-08-19T01:50:16;100996.91;;;19.37;95.25
64835;BME280;51293;59.296;18.006;2022-08-19T01:52:43;101001.00;;;19.40;95.54
64835;BME280;51293;59.296;18.006;2022-08-19T01:55:12;100996.34;;;19.40;95.51
64835;BME280;51293;59.296;18.006;2022-08-19T01:57:39;100988.63;;;19.42;95.21
64835;BME280;51293;59.296;18.006;2022-08-19T02:00:09;100987.81;;;19.42;95.34
64835;BME280;51293;59.296;18.006;2022-08-19T02:02:35;100994.41;;;19.41;95.28
64835;BME280;51293;59.296;18.006;2022-08-19T02:05:00;100992.78;;;19.34;95.56
64835;BME280;51293;59.296;18.006;2022-08-19T02:07:26;100995.81;;;19.38;95.65
64835;BME280;51293;59.296;18.006;2022-08-19T02:09:53;100991.41;;;19.37;95.94
64835;BME280;51293;59.296;18.006;2022-08-19T02:12:20;100999.38;;;19.39;95.53
64835;BME280;51293;59.296;18.006;2022-08-19T02:14:46;100992.50;;;19.36;95.91
64835;BME280;51293;59.296;18.006;2022-08-19T02:17:11;100992.25;;;19.38;95.82
64835;BME280;51293;59.296;18.006;2022-08-19T02:19:37;100988.09;;;19.40;95.74
64835;BME280;51293;59.296;18.006;2022-08-19T02:22:02;100994.66;;;19.44;95.57
64835;BME280;51293;59.296;18.006;2022-08-19T02:24:28;100985.06;;;19.42;95.99
64835;BME280;51293;59.296;18.006;2022-08-19T02:26:53;100989.75;;;19.41;95.81
64835;BME280;51293;59.296;18.006;2022-08-19T02:29:19;100983.19;;;19.37;96.17
64835;BME280;51293;59.296;18.006;2022-08-19T02:31:44;100987.56;;;19.38;96.34
64835;BME280;51293;59.296;18.006;2022-08-19T02:34:10;100996.34;;;19.40;96.19
64835;BME280;51293;59.296;18.006;2022-08-19T02:36:35;100988.09;;;19.40;96.29
64835;BME280;51293;59.296;18.006;2022-08-19T02:39:01;100984.81;;;19.38;96.34
64835;BME280;51293;59.296;18.006;2022-08-19T02:41:32;100988.13;;;19.35;96.53
64835;BME280;51293;59.296;18.006;2022-08-19T02:44:00;100986.47;;;19.39;96.53
64835;BME280;51293;59.296;18.006;2022-08-19T02:46:28;100984.81;;;19.38;96.42
64835;BME280;51293;59.296;18.006;2022-08-19T02:48:56;100989.50;;;19.38;96.46
64835;BME280;51293;59.296;18.006;2022-08-19T02:51:28;100990.56;;;19.42;96.32
64835;BME280;51293;59.296;18.006;2022-08-19T02:53:53;100990.56;;;19.42;96.19
64835;BME280;51293;59.296;18.006;2022-08-19T02:56:20;100986.75;;;19.38;96.72
64835;BME280;51293;59.296;18.006;2022-08-19T02:58:45;100990.84;;;19.35;96.66
64835;BME280;51293;59.296;18.006;2022-08-19T03:01:20;100993.06;;;19.38;96.86
64835;BME280;51293;59.296;18.006;2022-08-19T03:03:46;100995.53;;;19.34;97.00
64835;BME280;51293;59.296;18.006;2022-08-19T03:06:14;100988.94;;;19.35;97.15
64835;BME280;51293;59.296;18.006;2022-08-19T03:08:42;100991.97;;;19.34;97.26
64835;BME280;51293;59.296;18.006;2022-08-19T03:11:14;100991.13;;;19.39;97.10
64835;BME280;51293;59.296;18.006;2022-08-19T03:13:39;100994.16;;;19.37;97.27
64835;BME280;51293;59.296;18.006;2022-08-19T03:16:05;100996.06;;;19.42;96.87
64835;BME280;51293;59.296;18.006;2022-08-19T03:18:30;100998.00;;;19.36;97.08
64835;BME280;51293;59.296;18.006;2022-08-19T03:20:56;100998.84;;;19.36;97.29
64835;BME280;51293;59.296;18.006;2022-08-19T03:23:22;100999.91;;;19.35;97.18
64835;BME280;51293;59.296;18.006;2022-08-19T03:25:50;100996.63;;;19.33;97.25
64835;BME280;51293;59.296;18.006;2022-08-19T03:28:16;100992.50;;;19.36;97.19
64835;BME280;51293;59.296;18.006;2022-08-19T03:30:43;101004.03;;;19.38;96.86
64835;BME280;51293;59.296;18.006;2022-08-19T03:33:21;101000.22;;;19.34;97.32
64835;BME280;51293;59.296;18.006;2022-08-19T03:35:47;101005.16;;;19.32;97.62
64835;BME280;51293;59.296;18.006;2022-08-19T03:38:12;101006.00;;;19.32;97.64
64835;BME280;51293;59.296;18.006;2022-08-19T03:40:37;100996.94;;;19.32;97.48
64835;BME280;51293;59.296;18.006;2022-08-19T03:43:03;101007.91;;;19.32;97.60
64835;BME280;51293;59.296;18.006;2022-08-19T03:45:29;101004.34;;;19.31;97.74
64835;BME280;51293;59.296;18.006;2022-08-19T03:47:55;100998.56;;;19.33;97.56
64835;BME280;51293;59.296;18.006;2022-08-19T03:50:20;101000.75;;;19.36;97.63
64835;BME280;51293;59.296;18.006;2022-08-19T03:52:50;101003.47;;;19.36;97.74
64835;BME280;51293;59.296;18.006;2022-08-19T03:55:17;101004.34;;;19.36;97.54
64835;BME280;51293;59.296;18.006;2022-08-19T03:57:43;101007.31;;;19.45;97.37
64835;BME280;51293;59.296;18.006;2022-08-19T04:00:10;101005.41;;;19.41;97.25
64835;BME280;51293;59.296;18.006;2022-08-19T04:02:36;101008.44;;;19.39;97.25
64835;BME280;51293;59.296;18.006;2022-08-19T04:05:01;101011.41;;;19.43;97.39
64835;BME280;51293;59.296;18.006;2022-08-19T04:07:27;101016.38;;;19.46;97.13
64835;BME280;51293;59.296;18.006;2022-08-19T04:09:52;101010.06;;;19.45;97.15
64835;BME280;51293;59.296;18.006;2022-08-19T04:12:18;101010.88;;;19.46;96.97
64835;BME280;51293;59.296;18.006;2022-08-19T04:14:45;101008.09;;;19.51;96.70
64835;BME280;51293;59.296;18.006;2022-08-19T04:17:11;101018.22;;;19.55;96.41
64835;BME280;51293;59.296;18.006;2022-08-19T04:19:39;101018.22;;;19.55;96.52
64835;BME280;51293;59.296;18.006;2022-08-19T04:22:06;101020.97;;;19.60;96.24
64835;BME280;51293;59.296;18.006;2022-08-19T04:24:33;101024.28;;;19.57;96.57
64835;BME280;51293;59.296;18.006;2022-08-19T04:27:00;101025.41;;;19.56;96.31
64835;BME280;51293;59.296;18.006;2022-08-19T04:29:26;101031.72;;;19.57;96.42
64835;BME280;51293;59.296;18.006;2022-08-19T04:31:53;101031.69;;;19.62;95.96
64835;BME280;51293;59.296;18.006;2022-08-19T04:34:20;101033.63;;;19.61;96.07
64835;BME280;51293;59.296;18.006;2022-08-19T04:36:47;101028.66;;;19.63;96.11
64835;BME280;51293;59.296;18.006;2022-08-19T04:39:18;101036.84;;;19.69;95.59
64835;BME280;51293;59.296;18.006;2022-08-19T04:41:44;101034.09;;;19.69;95.64
64835;BME280;51293;59.296;18.006;2022-08-19T04:44:31;101034.69;;;19.66;96.09
64835;BME280;51293;59.296;18.006;2022-08-19T04:46:57;101032.47;;;19.68;95.99
64835;BME280;51293;59.296;18.006;2022-08-19T04:49:23;101039.06;;;19.72;95.80
64835;BME280;51293;59.296;18.006;2022-08-19T04:51:51;101033.25;;;19.73;95.77
64835;BME280;51293;59.296;18.006;2022-08-19T04:54:20;101036.84;;;19.69;96.03
64835;BME280;51293;59.296;18.006;2022-08-19T04:56:48;101033.03;;;19.70;95.95
64835;BME280;51293;59.296;18.006;2022-08-19T04:59:15;101041.50;;;19.73;95.85
64835;BME280;51293;59.296;18.006;2022-08-19T05:01:42;101036.59;;;19.70;96.27
64835;BME280;51293;59.296;18.006;2022-08-19T05:04:08;101032.97;;;19.75;95.81
64835;BME280;51293;59.296;18.006;2022-08-19T05:06:35;101032.47;;;19.68;96.08
64835;BME280;51293;59.296;18.006;2022-08-19T05:09:03;101035.44;;;19.76;95.96
64835;BME280;51293;59.296;18.006;2022-08-19T05:11:35;101030.53;;;19.73;95.51
64835;BME280;51293;59.296;18.006;2022-08-19T05:14:01;101027.47;;;19.75;95.68
64835;BME280;51293;59.296;18.006;2022-08-19T05:16:27;101024.13;;;19.83;95.46
64835;BME280;51293;59.296;18.006;2022-08-19T05:18:53;101022.72;;;19.85;95.35
64835;BME280;51293;59.296;18.006;2022-08-19T05:21:39;101013.63;;;19.90;94.98
64835;BME280;51293;59.296;18.006;2022-08-19T05:24:23;101021.84;;;19.95;94.85
64835;BME280;51293;59.296;18.006;2022-08-19T05:26:51;101020.47;;;19.98;94.68
64835;BME280;51293;59.296;18.006;2022-08-19T05:29:21;101016.56;;;20.04;94.44
64835;BME280;51293;59.296;18.006;2022-08-19T05:31:47;101017.91;;;20.06;94.23
64835;BME280;51293;59.296;18.006;2022-08-19T05:34:15;101011.56;;;20.11;94.16
64835;BME280;51293;59.296;18.006;2022-08-19T05:36:42;101017.81;;;20.16;93.78
64835;BME280;51293;59.296;18.006;2022-08-19T05:39:13;101013.72;;;20.19;93.82
64835;BME280;51293;59.296;18.006;2022-08-19T05:41:43;101006.72;;;20.27;93.46
64835;BME280;51293;59.296;18.006;2022-08-19T05:44:09;101018.56;;;20.27;92.87
64835;BME280;51293;59.296;18.006;2022-08-19T05:46:36;101014.44;;;20.30;92.43
64835;BME280;51293;59.296;18.006;2022-08-19T05:49:04;101014.31;;;20.40;92.19
64835;BME280;51293;59.296;18.006;2022-08-19T05:51:30;101015.44;;;20.44;91.81
64835;BME280;51293;59.296;18.006;2022-08-19T05:53:57;101009.53;;;20.56;90.78
64835;BME280;51293;59.296;18.006;2022-08-19T05:56:23;101010.25;;;20.66;89.95
64835;BME280;51293;59.296;18.006;2022-08-19T05:58:49;101010.84;;;20.63;89.70
64835;BME280;51293;59.296;18.006;2022-08-19T06:01:16;101011.06;;;20.67;89.68
64835;BME280;51293;59.296;18.006;2022-08-19T06:03:42;101006.09;;;20.69;89.37
64835;BME280;51293;59.296;18.006;2022-08-19T06:06:10;101004.09;;;20.74;89.31
64835;BME280;51293;59.296;18.006;2022-08-19T06:08:37;101002.63;;;20.82;89.03
64835;BME280;51293;59.296;18.006;2022-08-19T06:13:39;101002.25;;;20.94;87.90
64835;BME280;51293;59.296;18.006;2022-08-19T06:16:04;100990.13;;;20.95;87.86
64835;BME280;51293;59.296;18.006;2022-08-19T06:18:30;100992.28;;;20.98;87.39
64835;BME280;51293;59.296;18.006;2022-08-19T06:20:55;100988.28;;;21.09;87.10
64835;BME280;51293;59.296;18.006;2022-08-19T06:23:20;100990.38;;;21.17;86.99
64835;BME280;51293;59.296;18.006;2022-08-19T06:25:46;100985.31;;;21.29;86.18
64835;BME280;51293;59.296;18.006;2022-08-19T06:28:12;100987.69;;;21.36;85.88
64835;BME280;51293;59.296;18.006;2022-08-19T06:30:38;100993.88;;;21.47;85.10
64835;BME280;51293;59.296;18.006;2022-08-19T06:33:03;100993.16;;;21.60;84.55
64835;BME280;51293;59.296;18.006;2022-08-19T06:35:28;100999.06;;;21.67;83.76
64835;BME280;51293;59.296;18.006;2022-08-19T06:37:55;101005.59;;;21.76;82.77
64835;BME280;51293;59.296;18.006;2022-08-19T06:40:20;101007.06;;;21.87;82.25
64835;BME280;51293;59.296;18.006;2022-08-19T06:42:46;101008.84;;;21.97;81.76
64835;BME280;51293;59.296;18.006;2022-08-19T06:45:11;101013.91;;;22.09;80.92
64835;BME280;51293;59.296;18.006;2022-08-19T06:47:36;101017.03;;;22.21;80.11
64835;BME280;51293;59.296;18.006;2022-08-19T06:50:02;101020.22;;;22.28;79.52
64835;BME280;51293;59.296;18.006;2022-08-19T06:52:30;101011.44;;;22.40;78.63
64835;BME280;51293;59.296;18.006;2022-08-19T06:54:56;101011.69;;;22.43;78.45
64835;BME280;51293;59.296;18.006;2022-08-19T06:57:22;101020.34;;;22.51;77.94
64835;BME280;51293;59.296;18.006;2022-08-19T06:59:48;101016.69;;;22.55;77.63
64835;BME280;51293;59.296;18.006;2022-08-19T07:02:13;101013.44;;;22.67;77.49
64835;BME280;51293;59.296;18.006;2022-08-19T07:04:38;101012.44;;;22.77;77.01
64835;BME280;51293;59.296;18.006;2022-08-19T07:07:07;101006.75;;;22.87;76.87
64835;BME280;51293;59.296;18.006;2022-08-19T07:09:35;101011.25;;;22.96;76.44
64835;BME280;51293;59.296;18.006;2022-08-19T07:12:03;101010.63;;;22.99;75.97
64835;BME280;51293;59.296;18.006;2022-08-19T07:14:29;101014.63;;;23.07;75.29
64835;BME280;51293;59.296;18.006;2022-08-19T07:16:56;101016.34;;;23.17;74.91
64835;BME280;51293;59.296;18.006;2022-08-19T07:19:24;101011.22;;;23.24;74.51
64835;BME280;51293;59.296;18.006;2022-08-19T07:21:51;101011.31;;;23.33;74.51
64835;BME280;51293;59.296;18.006;2022-08-19T07:24:19;101015.94;;;23.37;73.87
64835;BME280;51293;59.296;18.006;2022-08-19T07:26:46;101015.19;;;23.45;73.04
64835;BME280;51293;59.296;18.006;2022-08-19T07:29:12;101013.44;;;23.49;73.35
64835;BME280;51293;59.296;18.006;2022-08-19T07:31:38;101014.16;;;23.69;72.99
64835;BME280;51293;59.296;18.006;2022-08-19T07:34:07;101020.50;;;23.69;72.65
64835;BME280;51293;59.296;18.006;2022-08-19T07:36:36;101015.16;;;23.73;72.27
64835;BME280;51293;59.296;18.006;2022-08-19T07:39:07;101019.75;;;23.77;71.89
64835;BME280;51293;59.296;18.006;2022-08-19T07:41:34;101013.59;;;23.80;72.03
64835;BME280;51293;59.296;18.006;2022-08-19T07:44:00;101005.69;;;23.88;71.95
64835;BME280;51293;59.296;18.006;2022-08-19T07:46:32;101008.34;;;23.93;71.52
64835;BME280;51293;59.296;18.006;2022-08-19T07:48:58;101010.41;;;24.09;71.11
64835;BME280;51293;59.296;18.006;2022-08-19T07:51:24;101009.38;;;24.28;70.67
64835;BME280;51293;59.296;18.006;2022-08-19T07:53:49;101010.94;;;24.34;69.69
64835;BME280;51293;59.296;18.006;2022-08-19T07:56:19;101009.09;;;24.52;69.56
64835;BME280;51293;59.296;18.006;2022-08-19T07:58:46;101014.69;;;24.69;69.09
64835;BME280;51293;59.296;18.006;2022-08-19T08:01:15;101005.66;;;24.86;67.71
64835;BME280;51293;59.296;18.006;2022-08-19T08:03:41;101009.63;;;25.02;66.88
64835;BME280;51293;59.296;18.006;2022-08-19T08:06:26;101005.78;;;25.20;66.98
64835;BME280;51293;59.296;18.006;2022-08-19T08:09:11;101010.09;;;25.44;64.88
64835;BME280;51293;59.296;18.006;2022-08-19T08:11:46;101005.50;;;25.48;63.53
64835;BME280;51293;59.296;18.006;2022-08-19T08:14:18;101013.03;;;25.65;63.83
64835;BME280;51293;59.296;18.006;2022-08-19T08:16:44;101001.66;;;25.84;63.36
64835;BME280;51293;59.296;18.006;2022-08-19T08:19:11;101006.53;;;26.04;62.65
64835;BME280;51293;59.296;18.006;2022-08-19T08:21:37;100995.72;;;26.28;61.47
64835;BME280;51293;59.296;18.006;2022-08-19T08:24:02;100997.03;;;26.48;61.13
64835;BME280;51293;59.296;18.006;2022-08-19T08:26:28;100999.69;;;26.74;60.05
64835;BME280;51293;59.296;18.006;2022-08-19T08:28:54;100996.50;;;26.93;58.82
64835;BME280;51293;59.296;18.006;2022-08-19T08:31:19;100997.28;;;27.02;58.64
64835;BME280;51293;59.296;18.006;2022-08-19T08:33:46;101001.06;;;27.06;58.80
64835;BME280;51293;59.296;18.006;2022-08-19T08:36:13;100996.69;;;27.26;57.85
64835;BME280;51293;59.296;18.006;2022-08-19T08:38:39;100992.16;;;27.63;56.97
64835;BME280;51293;59.296;18.006;2022-08-19T08:43:55;100992.91;;;28.26;54.20
64835;BME280;51293;59.296;18.006;2022-08-19T08:46:42;100994.41;;;28.57;53.77
64835;BME280;51293;59.296;18.006;2022-08-19T08:52:05;101000.16;;;29.22;50.89
64835;BME280;51293;59.296;18.006;2022-08-19T08:54:41;100994.56;;;29.34;50.37
64835;BME280;51293;59.296;18.006;2022-08-19T08:57:13;101000.00;;;29.43;49.86
64835;BME280;51293;59.296;18.006;2022-08-19T08:59:41;100999.66;;;29.56;48.47
64835;BME280;51293;59.296;18.006;2022-08-19T09:02:08;100996.38;;;29.67;48.98
64835;BME280;51293;59.296;18.006;2022-08-19T09:04:35;100989.97;;;29.94;48.79
64835;BME280;51293;59.296;18.006;2022-08-19T09:09:49;100988.78;;;30.51;47.08
64835;BME280;51293;59.296;18.006;2022-08-19T09:12:46;100981.84;;;30.92;45.97
64835;BME280;51293;59.296;18.006;2022-08-19T09:15:22;100986.19;;;30.90;45.57
64835;BME280;51293;59.296;18.006;2022-08-19T09:17:49;100980.59;;;30.74;43.80
64835;BME280;51293;59.296;18.006;2022-08-19T09:20:20;100981.22;;;30.99;43.73
64835;BME280;51293;59.296;18.006;2022-08-19T09:22:46;100976.25;;;30.76;43.50
64835;BME280;51293;59.296;18.006;2022-08-19T09:25:17;100974.81;;;30.83;44.07
64835;BME280;51293;59.296;18.006;2022-08-19T09:27:44;100979.34;;;30.87;44.34
64835;BME280;51293;59.296;18.006;2022-08-19T09:30:15;100980.84;;;30.85;44.68
64835;BME280;51293;59.296;18.006;2022-08-19T09:32:42;100979.63;;;30.66;44.21
64835;BME280;51293;59.296;18.006;2022-08-19T09:35:08;100973.88;;;30.31;44.97
64835;BME280;51293;59.296;18.006;2022-08-19T09:37:34;100968.84;;;30.21;45.38
64835;BME280;51293;59.296;18.006;2022-08-19T09:39:59;100976.59;;;30.00;46.25
64835;BME280;51293;59.296;18.006;2022-08-19T09:42:25;100977.03;;;30.02;46.44
64835;BME280;51293;59.296;18.006;2022-08-19T09:44:50;100975.56;;;29.92;46.43
64835;BME280;51293;59.296;18.006;2022-08-19T09:47:15;100976.31;;;29.77;45.04
64835;BME280;51293;59.296;18.006;2022-08-19T09:49:42;100970.38;;;29.78;46.43
64835;BME280;51293;59.296;18.006;2022-08-19T09:52:11;100972.72;;;29.76;46.53
64835;BME280;51293;59.296;18.006;2022-08-19T09:54:38;100974.66;;;29.88;46.20
64835;BME280;51293;59.296;18.006;2022-08-19T09:57:04;100962.13;;;29.82;46.11
64835;BME280;51293;59.296;18.006;2022-08-19T09:59:30;100967.94;;;29.77;46.65
64835;BME280;51293;59.296;18.006;2022-08-19T10:01:55;100954.25;;;29.72;46.67
64835;BME280;51293;59.296;18.006;2022-08-19T10:04:21;100958.91;;;29.68;46.48
64835;BME280;51293;59.296;18.006;2022-08-19T10:06:49;100952.91;;;29.41;44.68
64835;BME280;51293;59.296;18.006;2022-08-19T10:09:17;100950.00;;;29.37;44.43
64835;BME280;51293;59.296;18.006;2022-08-19T10:11:45;100955.97;;;29.24;45.18
64835;BME280;51293;59.296;18.006;2022-08-19T10:14:15;100950.28;;;29.32;45.89
64835;BME280;51293;59.296;18.006;2022-08-19T10:16:42;100954.78;;;29.37;45.93
64835;BME280;51293;59.296;18.006;2022-08-19T10:19:08;100963.63;;;29.27;45.00
64835;BME280;51293;59.296;18.006;2022-08-19T10:21:35;100957.38;;;29.30;44.94
64835;BME280;51293;59.296;18.006;2022-08-19T10:24:02;100951.31;;;29.40;44.81
64835;BME280;51293;59.296;18.006;2022-08-19T10:26:37;100943.44;;;29.30;44.11
64835;BME280;51293;59.296;18.006;2022-08-19T10:29:04;100952.00;;;29.37;44.82
64835;BME280;51293;59.296;18.006;2022-08-19T10:31:32;100947.44;;;29.45;44.36
64835;BME280;51293;59.296;18.006;2022-08-19T10:33:58;100954.63;;;29.46;45.46
64835;BME280;51293;59.296;18.006;2022-08-19T10:36:26;100947.44;;;29.45;45.35
64835;BME280;51293;59.296;18.006;2022-08-19T10:38:54;100943.28;;;29.51;44.71
64835;BME280;51293;59.296;18.006;2022-08-19T10:41:24;100938.63;;;29.55;43.56
64835;BME280;51293;59.296;18.006;2022-08-19T10:43:58;100941.59;;;29.62;43.70
64835;BME280;51293;59.296;18.006;2022-08-19T10:46:26;100943.34;;;29.67;44.14
64835;BME280;51293;59.296;18.006;2022-08-19T10:48:52;100940.69;;;29.86;42.34
64835;BME280;51293;59.296;18.006;2022-08-19T10:51:19;100939.06;;;29.57;40.74
64835;BME280;51293;59.296;18.006;2022-08-19T10:54:03;100932.03;;;29.75;40.01
64835;BME280;51293;59.296;18.006;2022-08-19T10:56:29;100932.22;;;29.82;39.62
64835;BME280;51293;59.296;18.006;2022-08-19T10:59:15;100938.38;;;30.04;39.74
64835;BME280;51293;59.296;18.006;2022-08-19T11:01:42;100944.38;;;30.18;39.03
64835;BME280;51293;59.296;18.006;2022-08-19T11:04:08;100942.59;;;29.82;39.35
64835;BME280;51293;59.296;18.006;2022-08-19T11:06:39;100937.25;;;30.05;39.39
64835;BME280;51293;59.296;18.006;2022-08-19T11:09:06;100947.75;;;30.39;38.87
64835;BME280;51293;59.296;18.006;2022-08-19T11:11:32;100941.28;;;30.67;39.60
64835;BME280;51293;59.296;18.006;2022-08-19T11:13:58;100949.19;;;30.96;38.47
64835;BME280;51293;59.296;18.006;2022-08-19T11:16:25;100939.81;;;31.04;36.10
64835;BME280;51293;59.296;18.006;2022-08-19T11:18:57;100935.44;;;31.23;36.90
64835;BME280;51293;59.296;18.006;2022-08-19T11:21:32;100924.56;;;31.56;35.73
64835;BME280;51293;59.296;18.006;2022-08-19T11:24:02;100928.09;;;31.73;35.56
64835;BME280;51293;59.296;18.006;2022-08-19T11:26:30;100922.13;;;31.74;35.88
64835;BME280;51293;59.296;18.006;2022-08-19T11:28:57;100925.59;;;31.68;36.22
64835;BME280;51293;59.296;18.006;2022-08-19T11:31:26;100931.69;;;31.93;35.24
64835;BME280;51293;59.296;18.006;2022-08-19T11:33:51;100926.34;;;31.84;34.62
64835;BME280;51293;59.296;18.006;2022-08-19T11:36:20;100917.31;;;31.94;34.48
64835;BME280;51293;59.296;18.006;2022-08-19T11:38:47;100925.94;;;32.05;34.75
64835;BME280;51293;59.296;18.006;2022-08-19T11:41:14;100921.31;;;31.74;34.90
64835;BME280;51293;59.296;18.006;2022-08-19T11:43:40;100926.09;;;31.93;34.57
64835;BME280;51293;59.296;18.006;2022-08-19T11:46:07;100920.66;;;32.23;34.10
64835;BME280;51293;59.296;18.006;2022-08-19T11:48:34;100931.78;;;32.38;33.37
64835;BME280;51293;59.296;18.006;2022-08-19T11:51:03;100927.13;;;32.46;33.52
64835;BME280;51293;59.296;18.006;2022-08-19T11:53:31;100937.31;;;32.58;33.46
64835;BME280;51293;59.296;18.006;2022-08-19T11:55:57;100922.09;;;32.59;34.20
64835;BME280;51293;59.296;18.006;2022-08-19T11:58:22;100916.78;;;32.77;34.12
64835;BME280;51293;59.296;18.006;2022-08-19T12:00:48;100927.25;;;33.03;34.13
64835;BME280;51293;59.296;18.006;2022-08-19T12:03:14;100933.84;;;33.44;32.65
64835;BME280;51293;59.296;18.006;2022-08-19T12:05:40;100924.56;;;33.40;31.70
64835;BME280;51293;59.296;18.006;2022-08-19T12:08:06;100925.69;;;33.35;32.28
64835;BME280;51293;59.296;18.006;2022-08-19T12:10:33;100921.50;;;33.52;31.77
64835;BME280;51293;59.296;18.006;2022-08-19T12:12:59;100926.50;;;32.83;33.03
64835;BME280;51293;59.296;18.006;2022-08-19T12:15:26;100913.84;;;33.19;32.68
64835;BME280;51293;59.296;18.006;2022-08-19T12:17:52;100923.16;;;33.90;32.27
64835;BME280;51293;59.296;18.006;2022-08-19T12:20:20;100926.31;;;33.85;31.42
64835;BME280;51293;59.296;18.006;2022-08-19T12:22:45;100922.44;;;33.97;31.26
64835;BME280;51293;59.296;18.006;2022-08-19T12:25:11;100924.78;;;34.32;30.75
64835;BME280;51293;59.296;18.006;2022-08-19T12:27:38;100918.63;;;33.82;31.43
64835;BME280;51293;59.296;18.006;2022-08-19T12:30:06;100925.75;;;33.39;32.53
64835;BME280;51293;59.296;18.006;2022-08-19T12:32:32;100929.78;;;33.41;32.42
64835;BME280;51293;59.296;18.006;2022-08-19T12:34:57;100927.16;;;33.56;31.75
64835;BME280;51293;59.296;18.006;2022-08-19T12:37:23;100927.84;;;33.45;32.11
64835;BME280;51293;59.296;18.006;2022-08-19T12:39:48;100922.63;;;34.15;32.06
64835;BME280;51293;59.296;18.006;2022-08-19T12:42:14;100933.03;;;34.11;31.27
64835;BME280;51293;59.296;18.006;2022-08-19T12:44:41;100918.50;;;34.05;31.52
64835;BME280;51293;59.296;18.006;2022-08-19T12:47:08;100916.00;;;34.37;30.97
64835;BME280;51293;59.296;18.006;2022-08-19T12:49:35;100926.69;;;34.61;30.92
64835;BME280;51293;59.296;18.006;2022-08-19T12:52:03;100907.63;;;34.92;30.15
64835;BME280;51293;59.296;18.006;2022-08-19T12:54:29;100921.00;;;34.54;30.46